PWSweather.com
Personal Weather Stations
Station Observations
WIKENOS15
47th Ave & 30th St, Kenosha, WI 53144

47th Ave & 30th StKenosha, WI 53144

Lat: 42.612, Lon: -87.866

Elevation: 697

Station Type: Oregon Scientific 100N

High Low Average
Temperature 38.1°F3.4°C 30.2°F-1.0°C 34.6°F1.4°C
Dew Point 35.8°F2.1°C 16.5°F-8.6°C 28.0°F-2.2°C
Winds 26.3 mph 42.3 kmh 0.6 mph 1.0 kmh 13.0 mph WSW20.9 kmh WSW
Wind Gusts 35.0 mph56.3 kmh 2.8 mph4.5 kmh 18.0 mph29.0 kmh
Humidity 98% 49% 78%
Pressure 29.88 in1011.9 mb 29.44 in997.0 mb -
Precipitation 0.00 in0.0 mm - -
Hour Temp Dew Point Humidity Winds Wind Gusts Pressure Precip Precip Rate Daily Precip Total
12:00 AM 37.9°F3.3°C 35.8°F2.1°C 92% 11.8 mph SE19.0 kmh SE 15.2 mph24.5 kmh 29.62 in1003.0 mb 0.00 in0.0 mm 0.00 in/hr0.0 mm/hr 0.00 in0.0 mm
01:00 AM 37.4°F3.0°C 35.3°F1.8°C 92% 9.2 mph SE14.8 kmh SE 13.3 mph21.4 kmh 29.56 in1001.0 mb 0.00 in0.0 mm 0.00 in/hr0.0 mm/hr 0.00 in0.0 mm
02:00 AM 37.0°F2.8°C 35.5°F1.9°C 94% 5.4 mph SSE8.7 kmh SSE 5.3 mph8.5 kmh 29.50 in999.0 mb 0.00 in0.0 mm 0.00 in/hr0.0 mm/hr 0.00 in0.0 mm
03:00 AM 37.2°F2.9°C 35.1°F1.7°C 92% 3.2 mph SE5.1 kmh SE 3.2 mph5.1 kmh 29.47 in998.0 mb 0.00 in0.0 mm 0.00 in/hr0.0 mm/hr 0.00 in0.0 mm
04:00 AM 37.4°F3.0°C 34.5°F1.4°C 89% 0.6 mph SE1.0 kmh SE 2.8 mph4.5 kmh 29.47 in998.0 mb 0.00 in0.0 mm 0.00 in/hr0.0 mm/hr 0.00 in0.0 mm
05:00 AM 38.1°F3.4°C 34.9°F1.6°C 88% 4.1 mph W6.6 kmh W 5.3 mph8.5 kmh 29.44 in997.0 mb 0.00 in0.0 mm 0.00 in/hr0.0 mm/hr 0.00 in0.0 mm
06:00 AM 36.7°F2.6°C 33.7°F0.9°C 89% 6.7 mph W10.8 kmh W 8.5 mph13.7 kmh 29.47 in998.0 mb 0.00 in0.0 mm 0.00 in/hr0.0 mm/hr 0.00 in0.0 mm
07:00 AM 37.0°F2.8°C 34.9°F1.6°C 92% 18.0 mph NNW29.0 kmh NNW 30.8 mph49.6 kmh 29.50 in999.0 mb 0.00 in0.0 mm 0.00 in/hr0.0 mm/hr 0.00 in0.0 mm
08:00 AM 33.3°F0.7°C 32.8°F0.4°C 98% 13.8 mph NW22.2 kmh NW 15.6 mph25.1 kmh 29.56 in1001.0 mb 0.00 in0.0 mm 0.00 in/hr0.0 mm/hr 0.00 in0.0 mm
09:00 AM 33.8°F1.0°C 32.5°F0.3°C 95% 15.8 mph NW25.4 kmh NW 20.9 mph33.6 kmh 29.65 in1004.1 mb 0.00 in0.0 mm 0.00 in/hr0.0 mm/hr 0.00 in0.0 mm
10:00 AM 34.5°F1.4°C 28.7°F-1.8°C 79% 19.9 mph NW32.0 kmh NW 35.0 mph56.3 kmh 29.68 in1005.1 mb 0.00 in0.0 mm 0.00 in/hr0.0 mm/hr 0.00 in0.0 mm
11:00 AM 34.0°F1.1°C 21.6°F-5.8°C 60% 22.1 mph NW35.6 kmh NW 26.0 mph41.8 kmh 29.68 in1005.1 mb 0.00 in0.0 mm 0.00 in/hr0.0 mm/hr 0.00 in0.0 mm
12:00 PM 32.9°F0.5°C 16.7°F-8.5°C 51% 26.3 mph NW42.3 kmh NW 30.4 mph48.9 kmh 29.71 in1006.1 mb 0.00 in0.0 mm 0.00 in/hr0.0 mm/hr 0.00 in0.0 mm
01:00 PM 33.6°F0.9°C 16.5°F-8.6°C 49% 26.0 mph WNW41.8 kmh WNW 30.8 mph49.6 kmh 29.74 in1007.1 mb 0.00 in0.0 mm 0.00 in/hr0.0 mm/hr 0.00 in0.0 mm
02:00 PM 30.9°F-0.6°C 20.9°F-6.2°C 66% 14.9 mph WNW24.0 kmh WNW 17.5 mph28.2 kmh 29.77 in1008.1 mb 0.00 in0.0 mm 0.00 in/hr0.0 mm/hr 0.00 in0.0 mm
03:00 PM 31.1°F-0.5°C 17.6°F-8.0°C 57% 14.6 mph WNW23.5 kmh WNW 15.2 mph24.5 kmh 29.82 in1009.8 mb 0.00 in0.0 mm 0.00 in/hr0.0 mm/hr 0.00 in0.0 mm
04:00 PM 30.2°F-1.0°C 19.8°F-6.8°C 65% 13.1 mph W21.1 kmh W 17.5 mph28.2 kmh 29.88 in1011.9 mb 0.00 in0.0 mm 0.00 in/hr0.0 mm/hr 0.00 in0.0 mm
05:00 PM 30.4°F-0.9°C 16.9°F-8.4°C 57% 16.5 mph W26.6 kmh W 28.1 mph45.2 kmh 29.88 in1011.9 mb 0.00 in0.0 mm 0.00 in/hr0.0 mm/hr 0.00 in0.0 mm
06:00 PM 30.2°F-1.0°C 17.2°F-8.2°C 58% 15.3 mph W24.6 kmh W 17.5 mph28.2 kmh 29.91 in1012.9 mb 0.00 in0.0 mm 0.00 in/hr0.0 mm/hr 0.00 in0.0 mm
07:00 PM 29.3°F-1.5°C 18.3°F-7.6°C 63% 12.7 mph W20.4 kmh W 17.0 mph27.4 kmh 29.91 in1012.9 mb 0.00 in0.0 mm 0.00 in/hr0.0 mm/hr 0.00 in0.0 mm
08:00 PM 28.0°F-2.2°C 19.8°F-6.8°C 71% 14.8 mph NW23.8 kmh NW 15.6 mph25.1 kmh 29.94 in1013.9 mb 0.00 in0.0 mm 0.00 in/hr0.0 mm/hr 0.00 in0.0 mm
09:00 PM 27.0°F-2.8°C 23.9°F-4.5°C 88% 9.0 mph W14.5 kmh W 19.3 mph31.1 kmh 29.94 in1013.9 mb 0.00 in0.0 mm 0.00 in/hr0.0 mm/hr 0.00 in0.0 mm
10:00 PM 27.1°F-2.7°C 20.6°F-6.3°C 76% 11.7 mph W18.8 kmh W 9.4 mph15.1 kmh 29.94 in1013.9 mb 0.00 in0.0 mm 0.00 in/hr0.0 mm/hr 0.00 in0.0 mm
11:00 PM 27.3°F-2.6°C 18.1°F-7.7°C 68% 11.7 mph W18.8 kmh W 9.4 mph15.1 kmh 29.94 in1013.9 mb 0.00 in0.0 mm 0.00 in/hr0.0 mm/hr 0.00 in0.0 mm